sensor_id;sensor_type;location;lat;lon;timestamp;temperature;humidity
43227;DHT22;28839;52.404;9.808;2022-11-15T00:03:53;6.20;99.90
43227;DHT22;28839;52.404;9.808;2022-11-15T00:10:55;6.30;99.90
43227;DHT22;28839;52.404;9.808;2022-11-15T00:17:49;6.30;99.90
43227;DHT22;28839;52.404;9.808;2022-11-15T00:24:43;5.90;99.90
43227;DHT22;28839;52.404;9.808;2022-11-15T00:31:39;5.90;99.90
43227;DHT22;28839;52.404;9.808;2022-11-15T00:38:33;5.80;99.90
43227;DHT22;28839;52.404;9.808;2022-11-15T00:45:29;5.80;99.90
43227;DHT22;28839;52.404;9.808;2022-11-15T00:52:24;5.50;99.90
43227;DHT22;28839;52.404;9.808;2022-11-15T00:59:18;5.50;99.90
43227;DHT22;28839;52.404;9.808;2022-11-15T01:06:12;6.40;99.90
43227;DHT22;28839;52.404;9.808;2022-11-15T01:13:10;6.90;99.90
43227;DHT22;28839;52.404;9.808;2022-11-15T01:20:05;7.10;99.90
43227;DHT22;28839;52.404;9.808;2022-11-15T01:26:59;7.20;99.90
43227;DHT22;28839;52.404;9.808;2022-11-15T01:33:54;7.20;99.90
43227;DHT22;28839;52.404;9.808;2022-11-15T01:40:48;7.00;99.90
43227;DHT22;28839;52.404;9.808;2022-11-15T01:47:46;7.10;99.90
43227;DHT22;28839;52.404;9.808;2022-11-15T01:54:42;7.00;99.90
43227;DHT22;28839;52.404;9.808;2022-11-15T02:01:36;6.90;99.90
43227;DHT22;28839;52.404;9.808;2022-11-15T02:08:30;6.90;99.90
43227;DHT22;28839;52.404;9.808;2022-11-15T02:15:30;6.70;99.90
43227;DHT22;28839;52.404;9.808;2022-11-15T02:22:36;6.60;99.90
43227;DHT22;28839;52.404;9.808;2022-11-15T02:29:42;6.60;99.90
43227;DHT22;28839;52.404;9.808;2022-11-15T02:36:46;6.80;99.90
43227;DHT22;28839;52.404;9.808;2022-11-15T02:43:46;6.80;99.90
43227;DHT22;28839;52.404;9.808;2022-11-15T02:50:50;6.70;99.90
43227;DHT22;28839;52.404;9.808;2022-11-15T02:57:52;6.70;99.90
43227;DHT22;28839;52.404;9.808;2022-11-15T03:04:54;6.80;99.90
43227;DHT22;28839;52.404;9.808;2022-11-15T03:11:54;6.80;99.90
43227;DHT22;28839;52.404;9.808;2022-11-15T03:18:54;6.80;99.90
43227;DHT22;28839;52.404;9.808;2022-11-15T03:25:53;7.00;99.90
43227;DHT22;28839;52.404;9.808;2022-11-15T03:32:51;7.00;99.90
43227;DHT22;28839;52.404;9.808;2022-11-15T03:39:47;7.00;99.90
43227;DHT22;28839;52.404;9.808;2022-11-15T03:46:47;7.00;99.90
43227;DHT22;28839;52.404;9.808;2022-11-15T03:53:44;6.80;99.90
43227;DHT22;28839;52.404;9.808;2022-11-15T04:00:39;6.70;99.90
43227;DHT22;28839;52.404;9.808;2022-11-15T04:07:33;6.60;99.90
43227;DHT22;28839;52.404;9.808;2022-11-15T04:14:27;6.40;99.90
43227;DHT22;28839;52.404;9.808;2022-11-15T04:21:22;6.50;99.90
43227;DHT22;28839;52.404;9.808;2022-11-15T04:28:33;6.30;99.90
43227;DHT22;28839;52.404;9.808;2022-11-15T04:35:27;6.80;99.90
43227;DHT22;28839;52.404;9.808;2022-11-15T04:42:22;7.30;99.90
43227;DHT22;28839;52.404;9.808;2022-11-15T04:49:16;7.40;99.90
43227;DHT22;28839;52.404;9.808;2022-11-15T04:56:10;8.10;99.90
43227;DHT22;28839;52.404;9.808;2022-11-15T05:03:05;8.20;99.90
43227;DHT22;28839;52.404;9.808;2022-11-15T05:10:17;8.60;99.90
43227;DHT22;28839;52.404;9.808;2022-11-15T05:17:10;9.10;99.90
43227;DHT22;28839;52.404;9.808;2022-11-15T05:24:06;9.20;99.90
43227;DHT22;28839;52.404;9.808;2022-11-15T05:31:01;9.40;99.90
43227;DHT22;28839;52.404;9.808;2022-11-15T05:37:55;9.50;99.90
43227;DHT22;28839;52.404;9.808;2022-11-15T05:44:51;9.70;99.90
43227;DHT22;28839;52.404;9.808;2022-11-15T05:51:46;9.90;99.90
43227;DHT22;28839;52.404;9.808;2022-11-15T05:58:42;9.90;99.90
43227;DHT22;28839;52.404;9.808;2022-11-15T06:05:37;9.90;99.90
43227;DHT22;28839;52.404;9.808;2022-11-15T06:12:31;9.80;99.90
43227;DHT22;28839;52.404;9.808;2022-11-15T06:19:25;9.80;99.90
43227;DHT22;28839;52.404;9.808;2022-11-15T06:26:20;9.60;99.90
43227;DHT22;28839;52.404;9.808;2022-11-15T06:33:14;9.50;99.90
43227;DHT22;28839;52.404;9.808;2022-11-15T06:40:10;9.50;99.90
43227;DHT22;28839;52.404;9.808;2022-11-15T06:47:05;9.40;99.90
43227;DHT22;28839;52.404;9.808;2022-11-15T06:53:59;9.30;99.90
43227;DHT22;28839;52.404;9.808;2022-11-15T07:00:53;9.30;99.90
43227;DHT22;28839;52.404;9.808;2022-11-15T07:07:53;9.30;99.90
43227;DHT22;28839;52.404;9.808;2022-11-15T07:14:47;9.50;99.90
43227;DHT22;28839;52.404;9.808;2022-11-15T07:21:41;9.60;99.90
43227;DHT22;28839;52.404;9.808;2022-11-15T07:28:36;9.60;99.90
43227;DHT22;28839;52.404;9.808;2022-11-15T07:35:30;9.90;99.90
43227;DHT22;28839;52.404;9.808;2022-11-15T07:42:24;10.10;99.90
43227;DHT22;28839;52.404;9.808;2022-11-15T07:49:36;10.30;99.90
43227;DHT22;28839;52.404;9.808;2022-11-15T07:56:30;10.20;99.90
43227;DHT22;28839;52.404;9.808;2022-11-15T08:03:24;9.90;99.90
43227;DHT22;28839;52.404;9.808;2022-11-15T08:10:19;9.80;99.90
43227;DHT22;28839;52.404;9.808;2022-11-15T08:17:13;9.90;99.90
43227;DHT22;28839;52.404;9.808;2022-11-15T08:24:09;10.00;99.90
43227;DHT22;28839;52.404;9.808;2022-11-15T08:31:05;10.10;99.90
43227;DHT22;28839;52.404;9.808;2022-11-15T08:37:58;10.40;99.90
43227;DHT22;28839;52.404;9.808;2022-11-15T08:44:52;10.90;99.90
43227;DHT22;28839;52.404;9.808;2022-11-15T08:51:47;11.30;99.90
43227;DHT22;28839;52.404;9.808;2022-11-15T08:58:41;11.60;99.90
43227;DHT22;28839;52.404;9.808;2022-11-15T09:05:36;11.80;99.90
43227;DHT22;28839;52.404;9.808;2022-11-15T09:12:31;12.00;99.90
43227;DHT22;28839;52.404;9.808;2022-11-15T09:19:26;11.90;99.90
43227;DHT22;28839;52.404;9.808;2022-11-15T09:26:19;12.30;99.90
43227;DHT22;28839;52.404;9.808;2022-11-15T09:33:15;13.10;99.90
43227;DHT22;28839;52.404;9.808;2022-11-15T09:40:11;13.40;99.90
43227;DHT22;28839;52.404;9.808;2022-11-15T09:47:17;13.50;99.90
43227;DHT22;28839;52.404;9.808;2022-11-15T09:54:24;13.50;99.90
43227;DHT22;28839;52.404;9.808;2022-11-15T10:01:26;13.30;99.90
43227;DHT22;28839;52.404;9.808;2022-11-15T10:08:33;13.40;99.90
43227;DHT22;28839;52.404;9.808;2022-11-15T10:15:31;13.20;99.90
43227;DHT22;28839;52.404;9.808;2022-11-15T10:22:28;13.70;99.90
43227;DHT22;28839;52.404;9.808;2022-11-15T10:29:24;13.90;99.90
43227;DHT22;28839;52.404;9.808;2022-11-15T10:36:23;14.00;99.90
43227;DHT22;28839;52.404;9.808;2022-11-15T10:43:19;14.20;99.90
43227;DHT22;28839;52.404;9.808;2022-11-15T10:50:27;14.30;99.90
43227;DHT22;28839;52.404;9.808;2022-11-15T10:57:24;14.40;99.90
43227;DHT22;28839;52.404;9.808;2022-11-15T11:04:19;14.40;99.90
43227;DHT22;28839;52.404;9.808;2022-11-15T11:11:13;14.50;99.90
43227;DHT22;28839;52.404;9.808;2022-11-15T11:18:16;14.90;99.90
43227;DHT22;28839;52.404;9.808;2022-11-15T11:25:22;14.40;99.90
43227;DHT22;28839;52.404;9.808;2022-11-15T11:32:30;14.50;99.90
43227;DHT22;28839;52.404;9.808;2022-11-15T11:39:34;14.60;99.90
43227;DHT22;28839;52.404;9.808;2022-11-15T11:46:46;14.30;99.90
43227;DHT22;28839;52.404;9.808;2022-11-15T11:53:46;14.10;99.90
43227;DHT22;28839;52.404;9.808;2022-11-15T12:00:46;14.30;99.90
43227;DHT22;28839;52.404;9.808;2022-11-15T12:07:42;14.40;99.90
43227;DHT22;28839;52.404;9.808;2022-11-15T12:14:42;14.40;99.90
43227;DHT22;28839;52.404;9.808;2022-11-15T12:21:45;14.30;99.90
43227;DHT22;28839;52.404;9.808;2022-11-15T12:28:44;14.20;99.90
43227;DHT22;28839;52.404;9.808;2022-11-15T12:35:42;14.00;99.90
43227;DHT22;28839;52.404;9.808;2022-11-15T12:42:41;14.00;99.90
43227;DHT22;28839;52.404;9.808;2022-11-15T12:49:53;13.80;99.90
43227;DHT22;28839;52.404;9.808;2022-11-15T13:04:27;13.80;99.90
43227;DHT22;28839;52.404;9.808;2022-11-15T13:11:51;14.00;99.90
43227;DHT22;28839;52.404;9.808;2022-11-15T13:18:53;14.00;99.90
43227;DHT22;28839;52.404;9.808;2022-11-15T13:26:12;14.00;99.90
43227;DHT22;28839;52.404;9.808;2022-11-15T13:33:09;14.10;99.90
43227;DHT22;28839;52.404;9.808;2022-11-15T13:40:19;14.00;99.90
43227;DHT22;28839;52.404;9.808;2022-11-15T13:47:16;14.00;99.90
43227;DHT22;28839;52.404;9.808;2022-11-15T13:54:19;14.00;99.90
43227;DHT22;28839;52.404;9.808;2022-11-15T14:01:16;14.00;99.90
43227;DHT22;28839;52.404;9.808;2022-11-15T14:08:23;14.00;99.90
43227;DHT22;28839;52.404;9.808;2022-11-15T14:15:27;13.90;99.90
43227;DHT22;28839;52.404;9.808;2022-11-15T14:22:23;13.90;99.90
43227;DHT22;28839;52.404;9.808;2022-11-15T14:29:27;13.90;99.90
43227;DHT22;28839;52.404;9.808;2022-11-15T14:36:21;13.80;99.90
43227;DHT22;28839;52.404;9.808;2022-11-15T14:43:15;13.80;99.90
43227;DHT22;28839;52.404;9.808;2022-11-15T14:50:12;13.70;99.90
43227;DHT22;28839;52.404;9.808;2022-11-15T14:57:07;13.60;99.90
43227;DHT22;28839;52.404;9.808;2022-11-15T15:04:00;13.60;99.90
43227;DHT22;28839;52.404;9.808;2022-11-15T15:10:56;13.70;99.90
43227;DHT22;28839;52.404;9.808;2022-11-15T15:17:50;13.70;99.90
43227;DHT22;28839;52.404;9.808;2022-11-15T15:24:44;13.60;99.90
43227;DHT22;28839;52.404;9.808;2022-11-15T15:31:39;13.60;99.90
43227;DHT22;28839;52.404;9.808;2022-11-15T15:38:33;13.50;99.90
43227;DHT22;28839;52.404;9.808;2022-11-15T15:45:27;13.50;99.90
43227;DHT22;28839;52.404;9.808;2022-11-15T15:52:23;13.50;99.90
43227;DHT22;28839;52.404;9.808;2022-11-15T15:59:17;13.40;99.90
43227;DHT22;28839;52.404;9.808;2022-11-15T16:06:32;13.30;99.90
43227;DHT22;28839;52.404;9.808;2022-11-15T16:13:28;13.10;99.90
43227;DHT22;28839;52.404;9.808;2022-11-15T16:20:34;12.90;99.90
43227;DHT22;28839;52.404;9.808;2022-11-15T16:27:28;12.80;99.90
43227;DHT22;28839;52.404;9.808;2022-11-15T16:34:23;12.60;99.90
43227;DHT22;28839;52.404;9.808;2022-11-15T16:41:18;12.60;99.90
43227;DHT22;28839;52.404;9.808;2022-11-15T16:48:21;12.50;99.90
43227;DHT22;28839;52.404;9.808;2022-11-15T16:55:18;12.40;99.90
43227;DHT22;28839;52.404;9.808;2022-11-15T17:02:12;12.30;99.90
43227;DHT22;28839;52.404;9.808;2022-11-15T17:09:06;12.20;99.90
43227;DHT22;28839;52.404;9.808;2022-11-15T17:16:08;12.10;99.90
43227;DHT22;28839;52.404;9.808;2022-11-15T17:23:02;11.90;99.90
43227;DHT22;28839;52.404;9.808;2022-11-15T17:29:56;11.70;99.90
43227;DHT22;28839;52.404;9.808;2022-11-15T17:36:51;11.70;99.90
43227;DHT22;28839;52.404;9.808;2022-11-15T17:43:45;11.60;99.90
43227;DHT22;28839;52.404;9.808;2022-11-15T17:50:39;11.60;99.90
43227;DHT22;28839;52.404;9.808;2022-11-15T17:57:34;11.40;99.90
43227;DHT22;28839;52.404;9.808;2022-11-15T18:04:28;11.50;99.90
43227;DHT22;28839;52.404;9.808;2022-11-15T18:11:24;11.50;99.90
43227;DHT22;28839;52.404;9.808;2022-11-15T18:18:20;11.40;99.90
43227;DHT22;28839;52.404;9.808;2022-11-15T18:25:14;11.30;99.90
43227;DHT22;28839;52.404;9.808;2022-11-15T18:32:07;11.10;99.90
43227;DHT22;28839;52.404;9.808;2022-11-15T18:39:05;11.30;99.90
43227;DHT22;28839;52.404;9.808;2022-11-15T18:46:01;11.30;99.90
43227;DHT22;28839;52.404;9.808;2022-11-15T18:52:56;11.40;99.90
43227;DHT22;28839;52.404;9.808;2022-11-15T18:59:53;11.40;99.90
43227;DHT22;28839;52.404;9.808;2022-11-15T19:06:48;11.40;99.90
43227;DHT22;28839;52.404;9.808;2022-11-15T19:13:43;11.30;99.90
43227;DHT22;28839;52.404;9.808;2022-11-15T19:20:39;11.40;99.90
43227;DHT22;28839;52.404;9.808;2022-11-15T19:27:33;11.50;99.90
43227;DHT22;28839;52.404;9.808;2022-11-15T19:34:27;11.40;99.90
43227;DHT22;28839;52.404;9.808;2022-11-15T19:41:23;11.50;99.90
43227;DHT22;28839;52.404;9.808;2022-11-15T19:48:17;11.50;99.90
43227;DHT22;28839;52.404;9.808;2022-11-15T19:55:11;11.60;99.90
43227;DHT22;28839;52.404;9.808;2022-11-15T20:02:08;11.70;99.90
43227;DHT22;28839;52.404;9.808;2022-11-15T20:09:03;11.60;99.90
43227;DHT22;28839;52.404;9.808;2022-11-15T20:15:57;11.60;99.90
43227;DHT22;28839;52.404;9.808;2022-11-15T20:22:52;11.40;99.90
43227;DHT22;28839;52.404;9.808;2022-11-15T20:29:46;11.50;99.90
43227;DHT22;28839;52.404;9.808;2022-11-15T20:36:40;11.40;99.90
43227;DHT22;28839;52.404;9.808;2022-11-15T20:43:35;11.60;99.90
43227;DHT22;28839;52.404;9.808;2022-11-15T20:50:29;11.50;99.90
43227;DHT22;28839;52.404;9.808;2022-11-15T20:57:23;11.30;99.90
43227;DHT22;28839;52.404;9.808;2022-11-15T21:04:18;11.30;99.90
43227;DHT22;28839;52.404;9.808;2022-11-15T21:11:12;11.50;99.90
43227;DHT22;28839;52.404;9.808;2022-11-15T21:18:23;11.50;99.90
43227;DHT22;28839;52.404;9.808;2022-11-15T21:25:19;11.50;99.90
43227;DHT22;28839;52.404;9.808;2022-11-15T21:32:13;11.60;99.90
43227;DHT22;28839;52.404;9.808;2022-11-15T21:39:07;11.70;99.90
43227;DHT22;28839;52.404;9.808;2022-11-15T21:46:04;11.90;99.90
43227;DHT22;28839;52.404;9.808;2022-11-15T21:52:59;11.80;99.90
43227;DHT22;28839;52.404;9.808;2022-11-15T21:59:53;11.80;99.90
43227;DHT22;28839;52.404;9.808;2022-11-15T22:07:06;11.60;99.90
43227;DHT22;28839;52.404;9.808;2022-11-15T22:14:00;11.50;99.90
43227;DHT22;28839;52.404;9.808;2022-11-15T22:20:54;11.50;99.90
43227;DHT22;28839;52.404;9.808;2022-11-15T22:27:50;11.40;99.90
43227;DHT22;28839;52.404;9.808;2022-11-15T22:34:44;11.40;99.90
43227;DHT22;28839;52.404;9.808;2022-11-15T22:41:38;11.40;99.90
43227;DHT22;28839;52.404;9.808;2022-11-15T22:48:34;11.40;99.90
43227;DHT22;28839;52.404;9.808;2022-11-15T22:55:28;11.40;99.90
43227;DHT22;28839;52.404;9.808;2022-11-15T23:02:22;11.20;99.90
43227;DHT22;28839;52.404;9.808;2022-11-15T23:09:17;11.10;99.90
43227;DHT22;28839;52.404;9.808;2022-11-15T23:16:11;10.90;99.90
43227;DHT22;28839;52.404;9.808;2022-11-15T23:23:26;10.80;99.90
43227;DHT22;28839;52.404;9.808;2022-11-15T23:30:22;10.70;99.90
43227;DHT22;28839;52.404;9.808;2022-11-15T23:37:33;10.70;99.90
43227;DHT22;28839;52.404;9.808;2022-11-15T23:44:27;10.80;99.90
43227;DHT22;28839;52.404;9.808;2022-11-15T23:51:22;10.80;99.90
43227;DHT22;28839;52.404;9.808;2022-11-15T23:58:16;10.90;99.90
